Time;durP1;ratioP1;P1;durP2;ratioP2;P2;SDS_P1;SDS_P2;PMS_P1;PMS_P2;Temp;Humidity;BMP_temperature;BMP_pressure;BME280_temperature;BME280_humidity;BME280_pressure;Samples;Min_cycle;Max_cycle;Signal;HPM_P1;HPM_P2
2021/08/08 00:01:15;;;;;;;1.73;0.80;;;24.00;54.70;;;;;;5049185;28;20044;-62
2021/08/08 00:03:41;;;;;;;1.52;0.77;;;24.00;54.70;;;;;;5049443;28;20133;-60
2021/08/08 00:06:07;;;;;;;1.27;0.80;;;24.00;54.70;;;;;;5049787;28;20048;-63
2021/08/08 00:08:34;;;;;;;1.17;0.73;;;24.00;54.80;;;;;;5049809;28;20059;-60
2021/08/08 00:11:00;;;;;;;1.17;0.80;;;24.00;54.80;;;;;;5049902;28;20116;-63
2021/08/08 00:13:26;;;;;;;1.63;0.77;;;24.00;54.80;;;;;;5049361;28;20033;-65
2021/08/08 00:15:52;;;;;;;1.20;0.80;;;24.00;54.80;;;;;;5049184;28;20021;-64
2021/08/08 00:18:18;;;;;;;1.42;0.80;;;24.00;54.80;;;;;;5045498;28;20033;-66
2021/08/08 00:20:44;;;;;;;1.10;0.70;;;24.00;54.80;;;;;;5049257;28;20411;-67
2021/08/08 00:23:10;;;;;;;1.05;0.80;;;24.00;54.80;;;;;;5049649;28;20033;-65
2021/08/08 00:25:36;;;;;;;1.10;0.80;;;24.00;54.80;;;;;;5051481;28;20032;-64
2021/08/08 00:28:02;;;;;;;1.23;0.70;;;24.00;54.80;;;;;;5048876;28;20570;-64
2021/08/08 00:30:28;;;;;;;1.13;0.80;;;23.90;54.80;;;;;;5049196;28;20041;-63
2021/08/08 00:32:54;;;;;;;1.30;0.80;;;23.90;54.80;;;;;;5048247;28;20052;-62
2021/08/08 00:35:20;;;;;;;2.00;1.00;;;23.90;54.80;;;;;;5040396;28;20071;-65
2021/08/08 00:37:48;;;;;;;1.13;0.70;;;24.00;54.80;;;;;;5047085;28;20103;-64
2021/08/08 00:40:16;;;;;;;1.17;0.70;;;23.90;54.80;;;;;;5049040;28;20159;-60
2021/08/08 00:42:45;;;;;;;1.25;0.70;;;24.00;54.90;;;;;;5031696;28;20094;-62
2021/08/08 00:45:12;;;;;;;0.85;0.60;;;23.90;54.80;;;;;;5044479;28;20032;-63
2021/08/08 00:47:37;;;;;;;1.25;0.70;;;23.90;54.80;;;;;;5047731;28;20029;-66
2021/08/08 00:50:03;;;;;;;1.77;0.82;;;23.90;54.90;;;;;;5039278;28;20044;-61
2021/08/08 00:52:29;;;;;;;1.35;0.70;;;23.90;54.80;;;;;;5049097;28;20075;-63
2021/08/08 00:54:55;;;;;;;1.73;0.80;;;23.90;54.90;;;;;;5045842;28;20753;-67
2021/08/08 00:57:20;;;;;;;1.42;0.70;;;23.90;54.80;;;;;;5046163;28;20029;-66
2021/08/08 00:59:46;;;;;;;2.75;0.80;;;23.90;54.90;;;;;;5049709;28;20025;-64
2021/08/08 01:02:12;;;;;;;1.55;0.80;;;23.90;54.80;;;;;;5048089;28;20081;-65
2021/08/08 01:04:47;;;;;;;1.92;0.75;;;23.90;55.40;;;;;;5045216;28;20029;-61
2021/08/08 01:07:18;;;;;;;1.90;0.85;;;23.90;54.90;;;;;;5044159;28;20060;-66
2021/08/08 01:09:50;;;;;;;2.05;0.70;;;23.90;54.80;;;;;;5040501;28;20127;-62
2021/08/08 01:12:15;;;;;;;1.25;0.70;;;23.90;54.90;;;;;;5045408;28;20033;-62
2021/08/08 01:14:43;;;;;;;1.35;0.70;;;23.90;54.90;;;;;;5048765;28;20033;-62
2021/08/08 01:17:10;;;;;;;2.03;0.80;;;23.90;54.90;;;;;;5047562;28;20029;-62
2021/08/08 01:19:40;;;;;;;1.52;0.75;;;23.90;54.90;;;;;;5047969;28;20750;-62
2021/08/08 01:22:07;;;;;;;1.77;0.82;;;23.90;54.90;;;;;;5048647;28;20662;-62
2021/08/08 01:24:33;;;;;;;1.30;0.80;;;23.90;54.90;;;;;;5048134;28;20079;-62
2021/08/08 01:26:59;;;;;;;1.02;0.65;;;23.90;54.90;;;;;;5047444;28;20107;-67
2021/08/08 01:29:24;;;;;;;1.92;0.80;;;23.90;54.90;;;;;;5048481;28;20178;-64
2021/08/08 01:31:54;;;;;;;1.38;0.80;;;23.90;54.90;;;;;;5045166;28;20048;-61
2021/08/08 01:34:20;;;;;;;1.00;0.63;;;23.90;54.90;;;;;;5042746;28;20036;-61
2021/08/08 01:36:48;;;;;;;1.95;1.13;;;23.90;54.90;;;;;;5026107;28;20021;-62
2021/08/08 01:39:21;;;;;;;0.75;0.65;;;23.90;54.90;;;;;;5032187;28;20083;-64
2021/08/08 01:41:55;;;;;;;1.13;0.70;;;23.90;54.90;;;;;;5044715;28;20052;-63
2021/08/08 01:44:24;;;;;;;0.68;0.60;;;23.90;54.90;;;;;;5032041;28;20365;-65
2021/08/08 01:46:57;;;;;;;1.35;0.80;;;23.90;54.90;;;;;;5032553;28;20108;-65
2021/08/08 01:49:27;;;;;;;0.82;0.70;;;23.90;54.90;;;;;;5040447;28;20043;-65
2021/08/08 01:51:54;;;;;;;1.38;0.70;;;23.90;54.90;;;;;;5047238;28;20050;-65
2021/08/08 01:54:21;;;;;;;0.95;0.70;;;23.90;54.90;;;;;;5047424;28;20040;-65
2021/08/08 01:56:47;;;;;;;0.95;0.70;;;23.80;54.90;;;;;;5041197;28;20128;-61
2021/08/08 01:59:14;;;;;;;1.40;0.70;;;23.80;54.90;;;;;;5061115;28;20021;-63
2021/08/08 02:01:40;;;;;;;1.45;0.60;;;23.80;54.90;;;;;;5045842;28;20032;-62
2021/08/08 02:04:19;;;;;;;1.17;0.60;;;23.80;54.90;;;;;;5045039;28;20063;-64
2021/08/08 02:06:46;;;;;;;0.95;0.70;;;23.90;55.00;;;;;;5043770;28;20110;-63
2021/08/08 02:09:11;;;;;;;0.52;0.52;;;23.80;54.90;;;;;;5056531;28;20490;-61
2021/08/08 02:11:37;;;;;;;1.45;0.80;;;23.80;54.90;;;;;;5045820;28;20133;-66
2021/08/08 02:14:03;;;;;;;1.25;0.75;;;23.80;54.90;;;;;;5047671;28;20025;-62
2021/08/08 02:16:31;;;;;;;1.38;0.70;;;23.80;54.90;;;;;;5046183;28;20040;-64
2021/08/08 02:18:57;;;;;;;0.98;0.70;;;23.80;54.90;;;;;;5047059;28;20025;-63
2021/08/08 02:21:23;;;;;;;1.00;0.70;;;23.80;55.00;;;;;;5047363;28;20029;-65
2021/08/08 02:23:48;;;;;;;2.30;0.80;;;23.80;54.90;;;;;;5046308;28;20036;-66
2021/08/08 02:26:14;;;;;;;1.58;0.80;;;23.80;54.90;;;;;;5046049;28;20048;-61
2021/08/08 02:28:39;;;;;;;1.00;0.70;;;23.80;54.90;;;;;;5029379;28;20025;-63
2021/08/08 02:31:05;;;;;;;1.83;0.90;;;23.80;55.00;;;;;;5046292;28;20037;-64
2021/08/08 02:33:31;;;;;;;1.15;0.70;;;23.80;55.00;;;;;;5046682;28;20457;-60
2021/08/08 02:35:56;;;;;;;1.00;0.70;;;23.80;55.00;;;;;;5046430;28;20033;-63
2021/08/08 02:38:24;;;;;;;1.77;0.70;;;23.80;55.00;;;;;;5046557;28;20039;-64
2021/08/08 02:40:50;;;;;;;1.48;1.00;;;23.80;54.90;;;;;;5046230;28;20086;-59
2021/08/08 02:43:16;;;;;;;0.73;0.60;;;23.80;55.00;;;;;;5040778;28;20593;-62
2021/08/08 02:45:42;;;;;;;1.05;0.70;;;23.80;55.00;;;;;;5045901;28;20017;-60
2021/08/08 02:48:08;;;;;;;0.85;0.73;;;23.80;54.90;;;;;;5046864;28;20119;-60
2021/08/08 02:50:33;;;;;;;0.82;0.68;;;23.70;54.90;;;;;;5037028;28;20476;-62
2021/08/08 02:52:59;;;;;;;0.85;0.68;;;23.80;55.00;;;;;;5047629;28;20044;-64
2021/08/08 02:55:25;;;;;;;1.60;0.82;;;23.70;54.90;;;;;;5046215;28;20112;-63
2021/08/08 02:57:50;;;;;;;1.50;0.80;;;23.70;54.90;;;;;;5046627;28;20417;-63
2021/08/08 03:00:16;;;;;;;1.50;0.77;;;23.70;54.90;;;;;;5046222;28;20028;-65
2021/08/08 03:02:42;;;;;;;0.88;0.73;;;23.70;55.00;;;;;;5045920;28;20052;-63
2021/08/08 03:05:08;;;;;;;1.38;0.65;;;23.80;55.00;;;;;;5046232;28;20024;-64
2021/08/08 03:07:34;;;;;;;0.88;0.60;;;23.70;54.90;;;;;;5046276;28;20079;-61
2021/08/08 03:10:03;;;;;;;1.80;0.70;;;23.70;54.90;;;;;;5046545;28;20029;-64
2021/08/08 03:12:28;;;;;;;0.80;0.60;;;23.80;55.00;;;;;;5046194;28;20391;-60
2021/08/08 03:14:54;;;;;;;1.42;0.77;;;23.70;54.90;;;;;;5046649;28;20094;-59
2021/08/08 03:17:20;;;;;;;1.08;0.70;;;23.70;54.90;;;;;;5045350;28;20100;-65
2021/08/08 03:19:45;;;;;;;1.25;0.70;;;23.70;54.90;;;;;;5041943;28;20033;-59
2021/08/08 03:22:11;;;;;;;1.58;0.85;;;23.70;54.90;;;;;;5046672;28;20468;-66
2021/08/08 03:24:36;;;;;;;0.80;0.70;;;23.70;55.40;;;;;;5046400;28;20041;-64
2021/08/08 03:27:02;;;;;;;0.75;0.65;;;23.70;54.90;;;;;;5045700;28;20538;-63
2021/08/08 03:29:28;;;;;;;0.82;0.60;;;23.70;54.90;;;;;;5046886;28;20052;-59
2021/08/08 03:31:53;;;;;;;1.38;0.90;;;23.70;54.90;;;;;;5044454;28;20165;-60
2021/08/08 03:34:19;;;;;;;1.75;0.70;;;23.70;54.90;;;;;;5045843;28;20029;-63
2021/08/08 03:36:44;;;;;;;0.90;0.70;;;23.70;54.90;;;;;;5034712;28;20052;-62
2021/08/08 03:39:10;;;;;;;0.93;0.63;;;23.70;54.90;;;;;;5049883;28;20036;-64
2021/08/08 03:41:36;;;;;;;1.25;0.75;;;23.70;54.90;;;;;;5047126;28;20024;-62
2021/08/08 03:44:02;;;;;;;0.85;0.63;;;23.70;54.90;;;;;;5031526;28;20105;-61
2021/08/08 03:46:27;;;;;;;0.57;0.50;;;23.70;54.90;;;;;;5048977;28;20099;-64
2021/08/08 03:48:53;;;;;;;2.97;0.90;;;23.70;54.90;;;;;;5049232;28;20028;-63
2021/08/08 03:51:18;;;;;;;1.10;0.75;;;23.70;55.00;;;;;;5049896;28;20458;-62
2021/08/08 03:53:44;;;;;;;0.98;0.70;;;23.70;55.00;;;;;;5067435;28;20111;-64
2021/08/08 03:56:09;;;;;;;1.30;0.70;;;23.70;55.00;;;;;;5051224;28;20136;-61
2021/08/08 03:58:35;;;;;;;1.48;0.70;;;23.70;55.00;;;;;;5049212;28;20394;-63
2021/08/08 04:01:02;;;;;;;1.10;0.63;;;23.70;55.00;;;;;;5047573;28;20029;-61
2021/08/08 04:03:31;;;;;;;0.85;0.63;;;23.70;55.00;;;;;;5052318;28;20411;-63
2021/08/08 04:05:57;;;;;;;0.98;0.63;;;23.60;54.90;;;;;;5050392;28;20064;-63
2021/08/08 04:08:23;;;;;;;0.70;0.70;;;23.70;55.00;;;;;;5050171;28;20056;-64
2021/08/08 04:10:48;;;;;;;0.70;0.60;;;23.70;55.00;;;;;;5049435;28;20846;-59
2021/08/08 04:13:14;;;;;;;0.60;0.50;;;23.60;54.90;;;;;;5052213;28;20481;-64
2021/08/08 04:15:39;;;;;;;0.60;0.50;;;23.70;55.00;;;;;;5047991;28;20385;-64
2021/08/08 04:18:05;;;;;;;0.75;0.65;;;23.60;54.90;;;;;;5049015;28;20051;-61
2021/08/08 04:20:31;;;;;;;1.58;0.80;;;23.60;54.90;;;;;;5036502;28;20020;-63
2021/08/08 04:22:56;;;;;;;0.60;0.60;;;23.70;55.00;;;;;;5053301;28;20614;-59
2021/08/08 04:25:22;;;;;;;0.80;0.70;;;23.60;54.90;;;;;;5044843;28;20409;-63
2021/08/08 04:27:47;;;;;;;0.63;0.60;;;23.60;55.00;;;;;;5037784;28;20061;-64
2021/08/08 04:30:13;;;;;;;0.60;0.60;;;23.60;54.90;;;;;;5035081;28;20021;-63
2021/08/08 04:32:38;;;;;;;0.88;0.70;;;23.70;55.00;;;;;;5043948;28;20558;-63
2021/08/08 04:35:04;;;;;;;0.50;0.47;;;23.60;54.90;;;;;;5047464;28;20032;-64
2021/08/08 04:37:31;;;;;;;1.00;0.85;;;23.60;54.90;;;;;;5046399;28;20036;-62
2021/08/08 04:39:57;;;;;;;0.80;0.60;;;23.60;54.90;;;;;;5040128;28;20067;-61
2021/08/08 04:42:23;;;;;;;0.88;0.57;;;23.60;54.90;;;;;;5044366;28;20071;-62
2021/08/08 04:44:48;;;;;;;0.60;0.60;;;23.60;54.90;;;;;;5044063;28;20029;-62
2021/08/08 04:47:14;;;;;;;0.90;0.70;;;23.60;55.00;;;;;;5044546;28;20040;-64
2021/08/08 04:49:40;;;;;;;0.90;0.60;;;23.60;55.00;;;;;;5046490;28;20356;-65
2021/08/08 04:52:05;;;;;;;1.02;0.70;;;23.60;55.00;;;;;;5046446;28;20655;-63
2021/08/08 04:54:31;;;;;;;0.52;0.50;;;23.60;55.00;;;;;;5048373;28;20350;-64
2021/08/08 04:56:57;;;;;;;1.40;0.77;;;23.60;54.90;;;;;;5041398;28;20017;-63
2021/08/08 04:59:22;;;;;;;0.95;0.60;;;23.60;55.00;;;;;;5048744;28;20048;-64
2021/08/08 05:01:48;;;;;;;0.75;0.52;;;23.60;55.00;;;;;;5060637;28;20047;-63
2021/08/08 05:04:13;;;;;;;0.57;0.57;;;23.60;55.00;;;;;;5050976;28;20068;-61
2021/08/08 05:06:39;;;;;;;1.23;0.70;;;23.60;55.00;;;;;;5043511;28;20024;-62
2021/08/08 05:09:05;;;;;;;0.70;0.60;;;23.60;55.00;;;;;;5047913;28;20044;-63
2021/08/08 05:11:32;;;;;;;0.70;0.60;;;23.60;55.00;;;;;;5047061;28;20446;-63
2021/08/08 05:13:59;;;;;;;0.60;0.45;;;23.60;55.00;;;;;;5047637;28;20025;-64
2021/08/08 05:16:24;;;;;;;1.23;0.63;;;23.60;55.00;;;;;;5042325;28;20107;-67
2021/08/08 05:18:50;;;;;;;1.30;0.80;;;23.60;55.00;;;;;;5035611;28;20048;-66
2021/08/08 05:21:16;;;;;;;1.02;0.50;;;23.60;55.00;;;;;;5028129;28;20102;-65
2021/08/08 05:23:41;;;;;;;0.85;0.65;;;23.60;55.00;;;;;;5032276;28;20090;-64
2021/08/08 05:26:07;;;;;;;0.55;0.52;;;23.60;55.50;;;;;;5046186;28;20064;-64
2021/08/08 05:28:32;;;;;;;0.60;0.60;;;23.60;55.00;;;;;;5045885;28;20357;-65
2021/08/08 05:30:58;;;;;;;0.80;0.60;;;23.60;55.00;;;;;;5044158;28;20037;-59
2021/08/08 05:33:24;;;;;;;0.85;0.65;;;23.50;54.90;;;;;;5046955;28;20111;-60
2021/08/08 05:35:51;;;;;;;0.70;0.50;;;23.50;54.90;;;;;;5047469;28;20063;-64
2021/08/08 05:38:17;;;;;;;1.38;0.60;;;23.60;55.00;;;;;;5047090;28;20436;-63
2021/08/08 05:40:42;;;;;;;1.05;0.70;;;23.50;54.90;;;;;;5047654;28;20094;-64
2021/08/08 05:43:08;;;;;;;0.60;0.60;;;23.60;55.00;;;;;;5034456;28;20037;-63
2021/08/08 05:45:33;;;;;;;1.05;0.55;;;23.60;55.00;;;;;;5051906;28;20059;-63
2021/08/08 05:47:59;;;;;;;1.60;0.90;;;23.50;55.00;;;;;;5047087;28;20032;-63
2021/08/08 05:50:25;;;;;;;0.55;0.50;;;23.50;55.00;;;;;;5046864;28;20040;-62
2021/08/08 05:52:51;;;;;;;1.20;0.60;;;23.60;55.00;;;;;;5047312;28;20017;-59
2021/08/08 05:55:19;;;;;;;0.43;0.43;;;23.50;54.90;;;;;;5047227;28;20690;-61
2021/08/08 05:57:45;;;;;;;0.60;0.60;;;23.50;55.00;;;;;;5045798;28;20090;-65
2021/08/08 06:00:11;;;;;;;0.52;0.52;;;23.50;54.90;;;;;;5047201;28;20497;-62
2021/08/08 06:02:37;;;;;;;1.08;0.52;;;23.50;54.90;;;;;;5045713;28;20076;-63
2021/08/08 06:05:04;;;;;;;0.68;0.52;;;23.50;55.00;;;;;;5046838;28;20044;-63
2021/08/08 06:07:29;;;;;;;0.60;0.60;;;23.50;55.10;;;;;;5041761;28;20143;-65
2021/08/08 06:09:55;;;;;;;1.67;0.63;;;23.50;55.20;;;;;;5044689;28;20171;-62
2021/08/08 06:12:21;;;;;;;0.98;0.55;;;23.50;55.10;;;;;;5033501;28;20029;-64
2021/08/08 06:14:46;;;;;;;1.08;0.70;;;23.40;55.00;;;;;;5045051;28;20029;-65
2021/08/08 06:17:12;;;;;;;1.33;0.60;;;23.40;55.00;;;;;;5039426;28;20029;-65
2021/08/08 06:19:38;;;;;;;2.30;0.70;;;23.40;54.80;;;;;;5038200;28;20033;-63
2021/08/08 06:22:03;;;;;;;1.27;0.70;;;23.30;54.60;;;;;;5045753;28;20055;-63
2021/08/08 06:24:29;;;;;;;1.63;0.70;;;23.20;55.00;;;;;;5040686;28;20029;-64
2021/08/08 06:26:55;;;;;;;2.65;0.70;;;23.10;55.10;;;;;;5038640;28;20044;-60
2021/08/08 06:29:20;;;;;;;1.05;0.70;;;23.10;55.10;;;;;;5046975;28;20089;-61
2021/08/08 06:31:46;;;;;;;2.88;0.80;;;23.00;54.90;;;;;;5045582;28;20037;-61
2021/08/08 06:34:12;;;;;;;1.50;0.80;;;22.80;55.30;;;;;;5038691;28;20064;-65
2021/08/08 06:36:37;;;;;;;1.00;0.70;;;22.70;56.00;;;;;;5037053;28;20037;-59
2021/08/08 06:39:05;;;;;;;2.33;1.00;;;22.70;56.20;;;;;;5046537;28;20029;-59
2021/08/08 06:41:32;;;;;;;1.55;0.70;;;22.50;56.10;;;;;;5046067;28;20557;-61
2021/08/08 06:43:58;;;;;;;0.93;0.68;;;22.50;56.70;;;;;;5030161;28;20029;-60
2021/08/08 06:46:23;;;;;;;0.90;0.70;;;22.40;56.50;;;;;;5046158;28;20017;-61
2021/08/08 06:48:49;;;;;;;1.65;0.70;;;22.40;56.50;;;;;;5045193;28;20025;-62
2021/08/08 06:51:14;;;;;;;1.20;0.73;;;22.40;56.50;;;;;;5046713;28;20029;-63
2021/08/08 06:53:40;;;;;;;1.23;0.70;;;22.40;56.30;;;;;;5045834;28;20039;-61
2021/08/08 06:56:06;;;;;;;1.70;0.60;;;22.50;56.40;;;;;;5040852;28;20111;-62
2021/08/08 06:58:31;;;;;;;0.70;0.60;;;22.50;56.30;;;;;;5039636;28;20100;-62
2021/08/08 07:00:57;;;;;;;0.80;0.60;;;22.50;56.30;;;;;;5045275;28;20045;-62
2021/08/08 07:03:22;;;;;;;0.90;0.52;;;22.50;56.20;;;;;;5045311;28;20164;-64
2021/08/08 07:05:48;;;;;;;0.95;0.52;;;22.60;56.30;;;;;;5045521;28;20045;-65
2021/08/08 07:08:13;;;;;;;1.00;0.60;;;22.50;56.20;;;;;;5027671;28;20219;-64
2021/08/08 07:10:39;;;;;;;0.63;0.50;;;22.60;56.20;;;;;;5049233;28;20067;-63
2021/08/08 07:13:05;;;;;;;1.67;0.65;;;22.50;56.10;;;;;;5049602;28;20029;-62
2021/08/08 07:15:31;;;;;;;1.48;0.50;;;22.50;56.10;;;;;;5049750;28;20238;-63
2021/08/08 07:17:56;;;;;;;1.17;0.60;;;22.50;56.10;;;;;;5035574;28;20091;-65
2021/08/08 07:20:22;;;;;;;1.35;0.60;;;22.50;56.00;;;;;;5042180;28;20093;-60
2021/08/08 07:22:47;;;;;;;0.95;0.55;;;22.50;56.00;;;;;;5049708;28;20033;-61
2021/08/08 07:25:13;;;;;;;1.25;0.60;;;22.50;56.00;;;;;;5049347;28;20078;-64
2021/08/08 07:27:39;;;;;;;1.42;0.60;;;22.50;56.00;;;;;;5040728;28;20556;-60
2021/08/08 07:30:05;;;;;;;1.55;0.98;;;22.50;56.00;;;;;;5043467;28;20075;-63
2021/08/08 07:32:31;;;;;;;1.42;0.60;;;22.50;55.90;;;;;;5046203;28;20072;-65
2021/08/08 07:34:57;;;;;;;1.45;0.70;;;22.50;55.90;;;;;;5047548;28;20060;-61
2021/08/08 07:37:22;;;;;;;1.05;0.50;;;22.60;55.90;;;;;;5046960;28;20094;-59
2021/08/08 07:39:49;;;;;;;0.95;0.60;;;22.50;55.80;;;;;;5038641;28;20052;-64
2021/08/08 07:42:15;;;;;;;0.75;0.50;;;22.60;55.80;;;;;;5033311;28;20093;-61
2021/08/08 07:44:40;;;;;;;0.70;0.50;;;22.60;55.80;;;;;;5047428;28;20161;-65
2021/08/08 07:47:06;;;;;;;0.70;0.60;;;22.60;55.80;;;;;;5045869;28;20132;-63
2021/08/08 07:49:31;;;;;;;1.60;0.60;;;22.60;55.70;;;;;;5045303;28;20025;-66
2021/08/08 07:51:57;;;;;;;1.13;0.60;;;22.60;55.70;;;;;;5045135;28;20078;-60
2021/08/08 07:54:23;;;;;;;1.35;0.55;;;22.60;55.70;;;;;;5047228;28;20499;-64
2021/08/08 07:56:49;;;;;;;0.68;0.50;;;22.60;55.70;;;;;;5041897;28;20022;-63
2021/08/08 07:59:14;;;;;;;0.50;0.50;;;22.60;55.60;;;;;;5041856;28;20465;-63
2021/08/08 08:01:41;;;;;;;0.47;0.47;;;22.60;55.60;;;;;;5045176;28;20491;-65
2021/08/08 08:04:07;;;;;;;0.50;0.45;;;22.60;55.60;;;;;;5043927;28;20033;-59
2021/08/08 08:06:33;;;;;;;1.10;0.50;;;22.60;55.60;;;;;;5046406;28;20112;-64
2021/08/08 08:08:59;;;;;;;0.75;0.50;;;22.70;55.60;;;;;;5047539;28;20547;-63
2021/08/08 08:11:25;;;;;;;0.60;0.50;;;22.70;55.70;;;;;;5046639;28;20123;-65
2021/08/08 08:13:50;;;;;;;0.70;0.50;;;22.70;55.60;;;;;;5045660;28;20107;-62
2021/08/08 08:16:16;;;;;;;1.17;0.60;;;22.70;55.60;;;;;;5043614;28;20057;-62
2021/08/08 08:18:42;;;;;;;0.40;0.40;;;22.70;55.60;;;;;;5039412;28;20436;-63
2021/08/08 08:21:07;;;;;;;0.80;0.60;;;22.70;55.60;;;;;;5043662;28;20127;-65
2021/08/08 08:23:33;;;;;;;0.50;0.50;;;22.70;55.60;;;;;;5044840;28;20021;-63
2021/08/08 08:25:58;;;;;;;0.57;0.50;;;22.70;55.60;;;;;;5041757;28;20132;-63
2021/08/08 08:28:29;;;;;;;1.60;0.60;;;22.70;55.50;;;;;;5035503;28;20049;-64
2021/08/08 08:30:55;;;;;;;0.73;0.60;;;22.70;55.50;;;;;;5030629;28;20112;-62
2021/08/08 08:33:21;;;;;;;0.50;0.40;;;22.70;55.50;;;;;;5041302;28;20427;-61
2021/08/08 08:35:46;;;;;;;0.73;0.50;;;22.70;55.50;;;;;;5043707;28;20128;-62
2021/08/08 08:38:12;;;;;;;0.70;0.55;;;22.80;55.50;;;;;;5046234;28;20037;-63
2021/08/08 08:40:41;;;;;;;0.85;0.40;;;22.70;55.50;;;;;;5045868;28;20079;-62
2021/08/08 08:43:10;;;;;;;1.75;0.57;;;22.70;55.50;;;;;;5032472;28;20051;-60
2021/08/08 08:45:40;;;;;;;0.80;0.40;;;22.70;55.50;;;;;;5039861;28;20610;-62
2021/08/08 08:48:07;;;;;;;0.82;0.50;;;22.80;55.50;;;;;;5047566;28;20025;-62
2021/08/08 08:50:35;;;;;;;1.10;0.60;;;22.80;55.50;;;;;;5044408;28;20109;-62
2021/08/08 08:53:01;;;;;;;0.65;0.50;;;22.80;55.50;;;;;;5045627;28;20108;-62
2021/08/08 08:55:27;;;;;;;0.65;0.40;;;22.80;55.50;;;;;;5054654;28;20450;-58
2021/08/08 08:57:54;;;;;;;1.17;0.60;;;22.80;55.50;;;;;;5046759;28;20031;-62
2021/08/08 09:00:22;;;;;;;1.33;0.50;;;22.80;55.50;;;;;;5046386;28;20016;-62
2021/08/08 09:02:47;;;;;;;1.77;0.60;;;22.80;55.50;;;;;;5046786;28;20032;-60
2021/08/08 09:05:13;;;;;;;1.58;0.50;;;22.80;55.40;;;;;;5044060;28;20760;-62
2021/08/08 09:07:39;;;;;;;0.80;0.50;;;22.80;55.40;;;;;;5047080;28;20098;-61
2021/08/08 09:10:14;;;;;;;0.50;0.50;;;22.80;55.40;;;;;;5047261;28;20428;-62
2021/08/08 09:12:40;;;;;;;0.77;0.52;;;22.80;55.40;;;;;;5042666;28;20107;-64
2021/08/08 09:15:07;;;;;;;0.40;0.40;;;22.80;55.40;;;;;;5047695;28;20021;-60
2021/08/08 09:17:38;;;;;;;0.60;0.50;;;22.80;55.40;;;;;;5046872;28;20456;-63
2021/08/08 09:20:09;;;;;;;1.10;0.50;;;22.90;55.40;;;;;;5049420;28;20029;-64
2021/08/08 09:22:36;;;;;;;1.05;0.60;;;22.90;55.40;;;;;;5045615;28;20033;-63
2021/08/08 09:25:03;;;;;;;1.25;0.50;;;22.80;55.40;;;;;;5050159;28;20151;-62
2021/08/08 09:27:34;;;;;;;0.57;0.40;;;22.80;55.40;;;;;;5036017;28;20052;-62
2021/08/08 09:30:00;;;;;;;1.02;0.50;;;22.90;55.60;;;;;;5039724;28;20423;-62
2021/08/08 09:32:33;;;;;;;0.63;0.50;;;22.90;55.60;;;;;;5037427;28;20098;-62
2021/08/08 09:35:10;;;;;;;1.05;0.50;;;22.90;55.60;;;;;;5039575;28;20120;-62
2021/08/08 09:37:36;;;;;;;1.27;0.57;;;23.00;55.70;;;;;;5041264;28;20027;-62
2021/08/08 09:40:03;;;;;;;1.17;0.52;;;23.00;55.60;;;;;;5039925;28;20094;-59
2021/08/08 09:42:30;;;;;;;0.73;0.45;;;23.00;55.60;;;;;;5031355;28;20439;-62
2021/08/08 09:45:06;;;;;;;1.52;0.60;;;23.10;55.50;;;;;;5043635;28;20033;-65
2021/08/08 09:47:45;;;;;;;1.42;0.60;;;23.10;55.50;;;;;;5039651;28;20040;-64
2021/08/08 09:50:23;;;;;;;1.20;0.70;;;23.10;55.40;;;;;;5043262;28;20036;-61
2021/08/08 09:52:59;;;;;;;0.60;0.50;;;23.20;55.40;;;;;;5037271;28;20159;-59
2021/08/08 09:55:38;;;;;;;2.13;0.55;;;23.20;55.30;;;;;;5037164;28;20412;-61
2021/08/08 09:58:10;;;;;;;1.08;0.60;;;23.20;55.30;;;;;;5040378;28;20455;-61
2021/08/08 10:00:39;;;;;;;1.30;0.60;;;23.30;55.20;;;;;;5045199;28;20029;-61
2021/08/08 10:03:09;;;;;;;1.75;0.82;;;23.30;55.10;;;;;;5043818;28;20032;-64
2021/08/08 10:05:40;;;;;;;1.30;0.60;;;23.40;55.10;;;;;;5043910;28;20036;-62
2021/08/08 10:08:13;;;;;;;0.82;0.50;;;23.30;55.00;;;;;;5043125;28;20089;-61
2021/08/08 10:10:41;;;;;;;1.85;0.65;;;23.40;55.10;;;;;;5037948;28;20036;-62
2021/08/08 10:13:31;;;;;;;1.02;0.52;;;23.40;55.10;;;;;;5038602;28;20040;-61
2021/08/08 10:15:59;;;;;;;0.63;0.60;;;23.50;55.00;;;;;;5035738;28;20028;-60
2021/08/08 10:18:29;;;;;;;1.65;0.55;;;23.50;54.90;;;;;;5030678;28;20063;-63
2021/08/08 10:20:55;;;;;;;2.20;0.90;;;23.50;54.90;;;;;;5039205;28;20159;-60
2021/08/08 10:23:22;;;;;;;2.58;0.68;;;23.60;54.80;;;;;;5041571;28;20534;-62
2021/08/08 10:25:49;;;;;;;1.80;0.63;;;23.60;54.80;;;;;;5041256;28;20543;-63
2021/08/08 10:28:16;;;;;;;0.68;0.45;;;23.60;54.80;;;;;;5034706;28;20039;-61
2021/08/08 10:30:44;;;;;;;0.73;0.52;;;23.60;54.70;;;;;;5036870;28;20072;-64
2021/08/08 10:33:10;;;;;;;1.30;0.60;;;23.70;54.70;;;;;;5038172;28;20348;-62
2021/08/08 10:35:44;;;;;;;1.90;0.65;;;23.70;54.60;;;;;;5038398;28;20120;-59
2021/08/08 10:38:11;;;;;;;1.13;0.50;;;23.70;54.60;;;;;;5040678;28;20098;-60
2021/08/08 10:40:39;;;;;;;0.70;0.50;;;23.70;54.60;;;;;;5038848;28;20028;-61
2021/08/08 10:43:07;;;;;;;1.00;0.60;;;23.80;54.50;;;;;;5035131;28;20098;-61
2021/08/08 10:45:35;;;;;;;0.60;0.40;;;23.80;54.40;;;;;;5046803;28;20100;-61
2021/08/08 10:48:09;;;;;;;1.85;0.70;;;23.80;54.50;;;;;;5047926;28;20174;-62
2021/08/08 10:50:45;;;;;;;0.75;0.60;;;23.90;54.50;;;;;;5061895;28;20472;-61
2021/08/08 10:53:25;;;;;;;1.00;0.50;;;23.90;54.50;;;;;;5043431;28;20135;-62
2021/08/08 10:56:03;;;;;;;0.90;0.52;;;23.90;54.50;;;;;;5026257;28;20484;-61
2021/08/08 10:58:33;;;;;;;0.80;0.60;;;23.90;54.40;;;;;;5038342;28;20029;-61
2021/08/08 11:00:59;;;;;;;1.35;0.75;;;23.90;54.30;;;;;;5041297;28;20033;-62
2021/08/08 11:03:24;;;;;;;1.45;0.60;;;23.90;54.30;;;;;;5042502;28;20043;-61
2021/08/08 11:05:50;;;;;;;3.13;0.65;;;24.00;54.30;;;;;;5037138;28;20446;-61
2021/08/08 11:08:21;;;;;;;1.27;0.50;;;24.00;54.20;;;;;;5042665;28;20174;-61
2021/08/08 11:10:47;;;;;;;1.38;0.60;;;24.00;54.20;;;;;;5044053;28;20087;-61
2021/08/08 11:13:24;;;;;;;1.00;0.50;;;24.00;54.10;;;;;;5041241;28;20033;-61
2021/08/08 11:15:51;;;;;;;0.77;0.50;;;24.00;54.10;;;;;;5054022;28;20127;-63
2021/08/08 11:18:26;;;;;;;0.85;0.32;;;24.10;54.10;;;;;;5040647;28;20567;-61
2021/08/08 11:20:52;;;;;;;0.57;0.50;;;24.10;54.00;;;;;;5042366;28;20120;-63
2021/08/08 11:23:27;;;;;;;0.90;0.65;;;24.10;53.90;;;;;;5043030;28;20032;-63
2021/08/08 11:25:52;;;;;;;0.65;0.47;;;24.10;53.90;;;;;;5043676;28;20036;-61
2021/08/08 11:28:18;;;;;;;0.50;0.50;;;24.10;53.80;;;;;;5042848;28;20045;-64
2021/08/08 11:30:45;;;;;;;0.93;0.50;;;24.10;53.80;;;;;;5045268;28;20043;-64
2021/08/08 11:33:13;;;;;;;0.63;0.50;;;24.10;53.70;;;;;;5043663;28;20033;-62
2021/08/08 11:35:40;;;;;;;0.80;0.50;;;24.10;53.70;;;;;;5039678;28;20186;-61
2021/08/08 11:38:19;;;;;;;1.02;0.57;;;24.20;53.60;;;;;;5026733;28;20532;-60
2021/08/08 11:40:46;;;;;;;1.00;0.50;;;24.20;53.60;;;;;;5035583;28;20698;-61
2021/08/08 11:43:13;;;;;;;0.82;0.50;;;24.20;53.50;;;;;;5033351;28;20544;-60
2021/08/08 11:45:41;;;;;;;0.50;0.50;;;24.20;53.50;;;;;;5038036;28;20043;-60
2021/08/08 11:48:08;;;;;;;1.02;0.47;;;24.20;53.40;;;;;;5052576;28;20153;-61
2021/08/08 11:50:35;;;;;;;1.00;0.50;;;24.20;53.40;;;;;;5042994;28;20032;-63
2021/08/08 11:53:03;;;;;;;0.60;0.50;;;24.30;53.40;;;;;;5038583;28;20033;-61
2021/08/08 11:55:31;;;;;;;0.65;0.43;;;24.30;53.40;;;;;;5034803;28;20443;-62
2021/08/08 11:58:08;;;;;;;0.82;0.50;;;24.30;53.70;;;;;;5025561;28;20397;-62
2021/08/08 12:00:37;;;;;;;0.55;0.50;;;24.30;53.40;;;;;;5033179;28;20037;-62
2021/08/08 12:03:04;;;;;;;2.15;0.70;;;24.30;53.80;;;;;;5037086;28;20040;-62
2021/08/08 12:05:32;;;;;;;1.63;0.60;;;24.30;53.30;;;;;;5037521;28;20575;-62
2021/08/08 12:07:59;;;;;;;0.85;0.50;;;24.30;53.30;;;;;;5035844;28;20036;-62
2021/08/08 12:10:30;;;;;;;0.63;0.47;;;24.40;53.40;;;;;;5041743;28;20064;-65
2021/08/08 12:12:56;;;;;;;1.77;0.50;;;24.40;53.30;;;;;;5049441;28;20563;-63
2021/08/08 12:15:37;;;;;;;1.15;0.60;;;24.40;53.20;;;;;;5048243;28;20063;-60
2021/08/08 12:18:04;;;;;;;0.77;0.40;;;24.40;53.20;;;;;;5040219;28;20451;-60
2021/08/08 12:20:41;;;;;;;0.80;0.50;;;24.40;53.20;;;;;;5044374;28;20028;-61
2021/08/08 12:23:12;;;;;;;1.38;0.70;;;24.40;53.70;;;;;;5048709;28;20033;-62
2021/08/08 12:25:40;;;;;;;0.65;0.50;;;24.50;53.20;;;;;;5047121;28;20139;-61
2021/08/08 12:28:06;;;;;;;1.25;0.55;;;24.50;53.20;;;;;;5046456;28;20485;-65
2021/08/08 12:30:32;;;;;;;0.77;0.50;;;24.50;53.20;;;;;;5043148;28;20087;-63
2021/08/08 12:33:09;;;;;;;1.13;0.55;;;24.50;53.10;;;;;;5058819;28;20044;-64
2021/08/08 12:35:45;;;;;;;1.70;0.93;;;24.50;53.10;;;;;;5035098;28;20089;-63
2021/08/08 12:38:14;;;;;;;0.77;0.60;;;24.50;53.00;;;;;;5042768;28;20699;-61
2021/08/08 12:40:51;;;;;;;1.45;0.50;;;24.50;52.90;;;;;;5051573;28;20037;-61
2021/08/08 12:43:25;;;;;;;0.63;0.50;;;24.60;53.00;;;;;;5038055;28;20037;-63
2021/08/08 12:45:52;;;;;;;1.25;0.50;;;24.50;52.90;;;;;;5051593;28;20486;-61
2021/08/08 12:48:31;;;;;;;0.93;0.50;;;24.60;52.90;;;;;;5052418;28;20044;-62